Time;durP1;ratioP1;P1;durP2;ratioP2;P2;SDS_P1;SDS_P2;PMS_P1;PMS_P2;Temp;Humidity;BMP_temperature;BMP_pressure;BME280_temperature;BME280_humidity;BME280_pressure;Samples;Min_cycle;Max_cycle;Signal;HPM_P1;HPM_P2
2022/03/19 00:00:18;;;;;;;15.30;4.03;;;5.20;99.90;;;;;;5039099;28;20083;-60
2022/03/19 00:02:45;;;;;;;18.85;4.05;;;5.20;99.90;;;;;;5037120;28;20141;-60
2022/03/19 00:05:11;;;;;;;15.68;3.92;;;5.10;99.90;;;;;;5039127;28;20444;-60
2022/03/19 00:07:41;;;;;;;18.02;4.63;;;5.10;99.90;;;;;;5037907;28;20070;-62
2022/03/19 00:10:09;;;;;;;11.65;3.97;;;5.10;99.90;;;;;;5008522;28;20095;-60
2022/03/19 00:12:40;;;;;;;19.75;4.68;;;5.10;99.90;;;;;;5038701;28;20481;-60
2022/03/19 00:15:08;;;;;;;15.80;4.30;;;5.10;99.90;;;;;;5039440;28;20045;-58
2022/03/19 00:17:34;;;;;;;17.45;4.43;;;5.10;99.90;;;;;;5034736;28;20041;-58
2022/03/19 00:20:01;;;;;;;16.33;4.40;;;5.00;99.90;;;;;;5040688;28;20041;-58
2022/03/19 00:22:27;;;;;;;16.48;4.60;;;5.00;99.90;;;;;;5037379;28;20087;-58
2022/03/19 00:24:53;;;;;;;14.38;4.35;;;5.00;99.90;;;;;;5033884;28;20095;-58
2022/03/19 00:27:19;;;;;;;17.83;4.47;;;4.90;99.90;;;;;;5035509;28;20209;-59
2022/03/19 00:29:46;;;;;;;20.30;4.93;;;4.90;99.90;;;;;;5035839;28;20044;-58
2022/03/19 00:32:12;;;;;;;18.95;4.53;;;4.90;99.90;;;;;;5039667;28;20544;-58
2022/03/19 00:34:38;;;;;;;16.15;4.13;;;4.90;99.90;;;;;;5017954;28;20094;-58
2022/03/19 00:37:04;;;;;;;14.13;4.10;;;4.90;99.90;;;;;;5037561;28;20136;-58
2022/03/19 00:39:30;;;;;;;12.77;4.03;;;4.80;99.90;;;;;;5037490;28;20419;-58
2022/03/19 00:41:56;;;;;;;16.20;6.30;;;4.80;99.90;;;;;;5037095;28;20056;-58
2022/03/19 00:44:23;;;;;;;17.27;5.45;;;4.80;99.90;;;;;;5039290;28;20099;-58
2022/03/19 00:46:49;;;;;;;14.30;4.28;;;4.80;99.90;;;;;;5038685;28;20524;-59
2022/03/19 00:49:16;;;;;;;17.08;4.18;;;4.80;99.90;;;;;;5038669;28;20462;-58
2022/03/19 00:51:42;;;;;;;15.77;4.80;;;4.80;99.90;;;;;;5035873;28;20510;-58
2022/03/19 00:54:10;;;;;;;19.92;4.95;;;4.80;99.90;;;;;;5023567;28;20053;-59
2022/03/19 00:56:36;;;;;;;16.42;4.30;;;4.80;99.90;;;;;;5038321;28;20149;-58
2022/03/19 00:59:03;;;;;;;16.08;4.35;;;4.70;99.90;;;;;;5038081;28;20052;-59
2022/03/19 01:01:29;;;;;;;15.77;4.97;;;4.70;99.90;;;;;;5053674;28;20071;-58
2022/03/19 01:03:55;;;;;;;12.93;4.28;;;4.70;99.90;;;;;;5040020;28;20053;-58
2022/03/19 01:06:22;;;;;;;13.93;4.18;;;4.70;99.90;;;;;;5033227;28;20056;-58
2022/03/19 01:08:48;;;;;;;15.50;4.32;;;4.60;99.90;;;;;;5038668;28;20499;-58
2022/03/19 01:11:14;;;;;;;16.48;4.60;;;4.60;99.90;;;;;;5037506;28;20520;-58
2022/03/19 01:13:40;;;;;;;19.10;4.75;;;4.50;99.90;;;;;;5038237;28;20544;-57
2022/03/19 01:16:07;;;;;;;17.55;5.38;;;4.50;99.90;;;;;;5026475;28;20049;-57
2022/03/19 01:18:34;;;;;;;15.80;5.28;;;4.50;99.90;;;;;;5029347;28;20049;-57
2022/03/19 01:21:01;;;;;;;16.58;4.95;;;4.40;99.90;;;;;;5046024;28;20036;-57
2022/03/19 01:23:27;;;;;;;15.27;4.70;;;4.40;99.90;;;;;;5039902;28;20501;-57
2022/03/19 01:25:53;;;;;;;19.15;4.90;;;4.40;99.90;;;;;;5029535;28;20052;-57
2022/03/19 01:28:19;;;;;;;15.27;4.28;;;4.40;99.90;;;;;;5039793;28;20097;-57
2022/03/19 01:30:46;;;;;;;23.55;5.78;;;4.30;99.90;;;;;;5037324;28;20578;-57
2022/03/19 01:33:12;;;;;;;18.90;4.68;;;4.30;99.90;;;;;;5025611;28;20476;-58
2022/03/19 01:35:38;;;;;;;16.90;4.78;;;4.20;99.90;;;;;;5033742;28;20052;-59
2022/03/19 01:38:05;;;;;;;14.85;5.10;;;4.30;99.90;;;;;;5033837;28;20715;-59
2022/03/19 01:40:31;;;;;;;16.35;4.53;;;4.20;99.90;;;;;;5047907;28;20055;-59
2022/03/19 01:42:57;;;;;;;14.75;4.90;;;4.20;99.90;;;;;;5031357;28;20067;-57
2022/03/19 01:45:24;;;;;;;15.70;4.78;;;4.20;99.90;;;;;;5032014;28;20088;-58
2022/03/19 01:47:53;;;;;;;13.00;4.20;;;4.20;99.90;;;;;;5056281;28;20503;-58
2022/03/19 01:50:21;;;;;;;18.77;5.13;;;4.20;99.90;;;;;;5036226;28;20084;-58
2022/03/19 01:52:48;;;;;;;14.95;4.47;;;4.20;99.90;;;;;;5037362;28;20049;-58
2022/03/19 01:55:18;;;;;;;15.10;4.60;;;4.20;99.90;;;;;;5038127;28;20132;-58
2022/03/19 01:57:45;;;;;;;14.35;4.85;;;4.10;99.90;;;;;;5042281;28;20139;-58
2022/03/19 02:00:16;;;;;;;18.98;4.65;;;4.20;99.90;;;;;;5043441;28;20084;-58
2022/03/19 02:02:44;;;;;;;18.95;4.55;;;4.10;99.90;;;;;;5040018;28;20677;-58
2022/03/19 02:05:15;;;;;;;15.93;5.03;;;4.10;99.90;;;;;;5040274;28;20528;-58
2022/03/19 02:07:42;;;;;;;18.97;5.17;;;4.10;99.90;;;;;;5035880;28;20108;-58
2022/03/19 02:10:09;;;;;;;19.65;5.63;;;4.10;99.90;;;;;;5058277;28;20120;-57
2022/03/19 02:12:36;;;;;;;16.60;4.25;;;4.10;99.90;;;;;;5040594;28;20044;-57
2022/03/19 02:15:03;;;;;;;16.17;4.75;;;4.00;99.90;;;;;;5039355;28;20482;-59
2022/03/19 02:17:29;;;;;;;17.58;5.53;;;4.00;99.90;;;;;;5025242;28;20080;-58
2022/03/19 02:19:57;;;;;;;16.73;5.28;;;4.00;99.90;;;;;;5038349;28;20044;-59
2022/03/19 02:22:26;;;;;;;18.15;5.45;;;4.00;99.90;;;;;;5042143;28;20394;-59
2022/03/19 02:27:42;;;;;;;17.02;5.10;;;4.00;99.90;;;;;;5036006;28;20049;-60
2022/03/19 02:30:12;;;;;;;21.42;4.65;;;4.00;99.90;;;;;;5034551;28;20103;-60
2022/03/19 02:32:40;;;;;;;15.30;5.75;;;3.90;99.90;;;;;;5049986;28;20048;-58
2022/03/19 02:35:09;;;;;;;15.45;4.70;;;4.00;99.90;;;;;;5038853;28;20138;-58
2022/03/19 02:37:39;;;;;;;16.67;5.18;;;3.90;99.90;;;;;;5056972;28;20045;-58
2022/03/19 02:40:07;;;;;;;20.30;5.03;;;3.90;99.90;;;;;;5039016;28;20284;-58
2022/03/19 02:42:33;;;;;;;18.17;5.35;;;3.90;99.90;;;;;;5044531;28;20092;-57
2022/03/19 02:44:59;;;;;;;19.17;5.28;;;3.90;99.90;;;;;;5034656;28;20514;-59
2022/03/19 02:47:25;;;;;;;16.98;4.72;;;3.90;99.90;;;;;;5042609;28;20111;-58
2022/03/19 02:49:51;;;;;;;14.07;4.65;;;3.90;99.90;;;;;;5041507;28;20427;-59
2022/03/19 02:52:17;;;;;;;16.30;5.10;;;3.90;99.90;;;;;;5030042;28;20134;-59
2022/03/19 02:54:43;;;;;;;19.38;5.43;;;3.90;99.90;;;;;;5036380;28;20041;-58
2022/03/19 02:57:09;;;;;;;14.68;4.75;;;3.90;99.90;;;;;;5056365;28;20049;-58
2022/03/19 02:59:35;;;;;;;14.95;5.05;;;3.90;99.90;;;;;;5056508;28;20403;-60
2022/03/19 03:02:03;;;;;;;14.68;5.70;;;3.90;99.90;;;;;;5036634;28;20044;-60
2022/03/19 03:04:30;;;;;;;16.58;5.43;;;3.90;99.90;;;;;;5040123;28;20041;-60
2022/03/19 03:06:59;;;;;;;17.45;5.40;;;3.90;99.90;;;;;;5050557;28;20083;-60
2022/03/19 03:09:27;;;;;;;17.65;5.07;;;3.90;99.90;;;;;;5040914;28;20403;-60
2022/03/19 03:11:55;;;;;;;15.05;4.80;;;3.80;99.90;;;;;;5033007;28;20547;-58
2022/03/19 03:14:22;;;;;;;17.10;5.47;;;3.80;99.90;;;;;;5027681;28;20049;-58
2022/03/19 03:16:51;;;;;;;17.90;5.72;;;3.80;99.90;;;;;;5041994;28;20091;-60
2022/03/19 03:19:18;;;;;;;14.95;5.10;;;3.80;99.90;;;;;;5020804;28;20071;-60
2022/03/19 03:21:45;;;;;;;18.00;5.78;;;3.80;99.90;;;;;;5040713;28;20124;-60
2022/03/19 03:24:13;;;;;;;20.33;5.93;;;3.70;99.90;;;;;;5037144;28;20091;-59
2022/03/19 03:26:40;;;;;;;15.63;5.25;;;3.70;99.90;;;;;;5055091;28;20072;-59
2022/03/19 03:29:08;;;;;;;19.70;5.55;;;3.70;99.90;;;;;;5053597;28;20863;-59
2022/03/19 03:31:35;;;;;;;17.95;5.22;;;3.70;99.90;;;;;;5049059;28;20106;-59
2022/03/19 03:34:03;;;;;;;20.20;5.40;;;3.60;99.90;;;;;;5035108;28;20052;-59
2022/03/19 03:36:29;;;;;;;14.95;4.97;;;3.60;99.90;;;;;;5034809;28;20330;-60
2022/03/19 03:38:55;;;;;;;14.63;5.13;;;3.60;99.90;;;;;;5054853;28;20507;-59
2022/03/19 03:41:21;;;;;;;18.70;5.97;;;3.60;99.90;;;;;;5039529;28;20426;-59
2022/03/19 03:43:47;;;;;;;18.88;5.53;;;3.60;99.90;;;;;;5037876;28;20048;-59
2022/03/19 03:46:13;;;;;;;15.50;5.10;;;3.60;99.90;;;;;;5037065;28;20056;-59
2022/03/19 03:48:39;;;;;;;19.67;6.47;;;3.60;99.90;;;;;;5036358;28;20563;-59
2022/03/19 03:51:07;;;;;;;15.40;5.35;;;3.50;99.90;;;;;;5027094;28;20053;-57
2022/03/19 03:53:35;;;;;;;17.73;5.47;;;3.60;99.90;;;;;;5055183;28;20084;-57
2022/03/19 03:56:02;;;;;;;17.77;6.00;;;3.50;99.90;;;;;;5031227;28;20103;-58
2022/03/19 03:58:28;;;;;;;18.20;6.72;;;3.50;99.90;;;;;;5037008;28;20232;-58
2022/03/19 04:00:56;;;;;;;16.38;6.35;;;3.50;99.90;;;;;;5028027;28;20051;-58
2022/03/19 04:03:22;;;;;;;20.80;6.15;;;3.50;99.90;;;;;;5034769;28;20540;-57
2022/03/19 04:05:49;;;;;;;14.73;5.65;;;3.40;99.90;;;;;;5038871;28;20044;-57
2022/03/19 04:08:15;;;;;;;23.40;6.68;;;3.40;99.90;;;;;;5030897;28;20051;-58
2022/03/19 04:10:42;;;;;;;16.52;5.40;;;3.40;99.90;;;;;;5037975;28;20494;-58
2022/03/19 04:13:08;;;;;;;13.23;5.38;;;3.40;99.90;;;;;;5006116;28;20231;-57
2022/03/19 04:15:34;;;;;;;21.00;7.43;;;3.40;99.90;;;;;;5022054;28;20100;-58
2022/03/19 04:18:03;;;;;;;15.27;6.53;;;3.40;99.90;;;;;;5016415;28;20684;-57
2022/03/19 04:20:30;;;;;;;16.02;6.55;;;3.40;99.90;;;;;;5040168;28;20083;-58
2022/03/19 04:22:56;;;;;;;16.10;6.10;;;3.40;99.90;;;;;;5038817;28;20566;-57
2022/03/19 04:25:25;;;;;;;16.58;6.35;;;3.40;99.90;;;;;;5039892;28;20045;-58
2022/03/19 04:27:54;;;;;;;16.90;7.15;;;3.30;99.90;;;;;;5049081;28;20049;-58
2022/03/19 04:30:24;;;;;;;21.75;6.13;;;3.30;99.90;;;;;;5031700;28;20133;-57
2022/03/19 04:32:58;;;;;;;17.67;6.72;;;3.30;99.90;;;;;;5053911;28;20083;-57
2022/03/19 04:38:15;;;;;;;16.92;6.07;;;3.30;99.90;;;;;;5014236;28;20077;-57
2022/03/19 04:40:43;;;;;;;18.65;6.38;;;3.30;99.90;;;;;;5035493;28;20163;-58
2022/03/19 04:43:09;;;;;;;24.50;7.03;;;3.30;99.90;;;;;;5027564;28;20582;-57
2022/03/19 04:45:37;;;;;;;19.95;6.40;;;3.30;99.90;;;;;;5040411;28;20404;-60
2022/03/19 04:48:03;;;;;;;14.65;6.32;;;3.30;99.90;;;;;;5019470;28;20138;-59
2022/03/19 04:50:29;;;;;;;18.42;6.18;;;3.30;99.90;;;;;;5040828;28;20130;-58
2022/03/19 04:52:56;;;;;;;15.45;6.30;;;3.30;99.90;;;;;;5030255;28;20045;-58
2022/03/19 04:55:24;;;;;;;14.63;6.15;;;3.30;99.90;;;;;;5034595;28;20133;-58
2022/03/19 04:57:50;;;;;;;17.92;6.97;;;3.30;99.90;;;;;;5032960;28;20048;-58
2022/03/19 05:00:17;;;;;;;18.08;6.97;;;3.30;99.90;;;;;;5032312;28;20436;-58
2022/03/19 05:02:44;;;;;;;16.45;5.97;;;3.20;99.90;;;;;;5038712;28;20503;-58
2022/03/19 05:05:11;;;;;;;21.42;6.93;;;3.20;99.90;;;;;;5032414;28;20056;-57
2022/03/19 05:07:37;;;;;;;15.90;6.20;;;3.20;99.90;;;;;;5030032;28;20073;-57
2022/03/19 05:12:50;;;;;;;15.65;6.05;;;3.10;99.90;;;;;;5035818;28;20045;-57
2022/03/19 05:15:17;;;;;;;16.90;6.45;;;3.10;99.90;;;;;;5012248;28;20116;-58
2022/03/19 05:17:44;;;;;;;18.45;6.78;;;3.10;99.90;;;;;;5032225;28;20053;-59
2022/03/19 05:20:12;;;;;;;17.55;6.18;;;3.10;99.90;;;;;;5040082;28;20045;-58
2022/03/19 05:22:39;;;;;;;17.48;6.10;;;3.10;99.90;;;;;;5044770;28;20541;-57
2022/03/19 05:25:06;;;;;;;16.23;6.60;;;3.20;99.90;;;;;;5042543;28;20045;-57
2022/03/19 05:27:33;;;;;;;18.98;7.25;;;3.20;99.90;;;;;;5041928;28;20048;-58
2022/03/19 05:29:59;;;;;;;20.70;7.07;;;3.20;99.90;;;;;;5043556;28;20053;-58
2022/03/19 05:32:25;;;;;;;18.52;6.13;;;3.30;99.90;;;;;;5029632;28;20507;-57
2022/03/19 05:34:54;;;;;;;14.27;6.20;;;3.30;99.90;;;;;;5031799;28;20049;-58
2022/03/19 05:37:20;;;;;;;11.43;5.93;;;3.30;99.90;;;;;;5047163;28;20195;-58
2022/03/19 05:39:47;;;;;;;18.75;7.45;;;3.30;99.90;;;;;;5034079;28;20456;-58
2022/03/19 05:42:13;;;;;;;23.13;7.32;;;3.30;99.90;;;;;;5027493;28;20050;-58
2022/03/19 05:44:39;;;;;;;17.10;6.93;;;3.30;99.90;;;;;;5051976;28;20169;-59
2022/03/19 05:47:06;;;;;;;18.52;7.15;;;3.40;99.90;;;;;;5030927;28;20099;-58
2022/03/19 05:49:32;;;;;;;19.83;7.40;;;3.40;99.90;;;;;;5028217;28;20508;-58
2022/03/19 05:51:58;;;;;;;16.27;7.03;;;3.40;99.90;;;;;;5036783;28;20582;-57
2022/03/19 05:54:25;;;;;;;24.13;7.20;;;3.40;99.90;;;;;;5031994;28;20045;-57
2022/03/19 05:56:53;;;;;;;16.98;6.78;;;3.40;99.90;;;;;;5025117;28;20091;-57
2022/03/19 05:59:20;;;;;;;19.25;7.35;;;3.40;99.90;;;;;;5029304;28;20592;-59
2022/03/19 06:01:46;;;;;;;15.82;7.05;;;3.40;99.90;;;;;;5025885;28;20127;-59
2022/03/19 06:04:12;;;;;;;16.98;7.45;;;3.50;99.90;;;;;;5034652;28;20049;-59
2022/03/19 06:06:39;;;;;;;21.58;9.23;;;3.50;99.90;;;;;;5049126;28;20049;-58
2022/03/19 06:09:05;;;;;;;21.48;10.20;;;3.50;99.90;;;;;;5043443;28;20053;-58
2022/03/19 06:11:31;;;;;;;18.30;7.55;;;3.50;99.90;;;;;;5047867;28;20063;-59
2022/03/19 06:13:58;;;;;;;16.75;6.95;;;3.50;99.90;;;;;;5047404;28;20427;-58
2022/03/19 06:16:24;;;;;;;15.25;7.40;;;3.50;99.90;;;;;;5036767;28;20071;-60
2022/03/19 06:18:50;;;;;;;24.33;8.70;;;3.50;99.90;;;;;;5038057;28;20124;-59
2022/03/19 06:21:18;;;;;;;13.00;7.68;;;3.50;99.90;;;;;;5038571;28;20048;-58
2022/03/19 06:23:47;;;;;;;21.02;8.20;;;3.60;99.90;;;;;;5034041;28;20055;-59
2022/03/19 06:26:14;;;;;;;19.10;7.57;;;3.60;99.90;;;;;;5034090;28;20045;-59
2022/03/19 06:28:40;;;;;;;18.08;7.60;;;3.60;99.90;;;;;;5046138;28;20457;-58
2022/03/19 06:31:07;;;;;;;19.35;8.30;;;3.70;99.90;;;;;;5027459;28;20045;-57
2022/03/19 06:33:33;;;;;;;24.25;7.15;;;3.70;99.90;;;;;;5038056;28;20508;-58
2022/03/19 06:38:45;;;;;;;24.15;7.18;;;3.80;99.90;;;;;;5037240;28;20053;-58
2022/03/19 06:41:11;;;;;;;17.15;7.72;;;3.80;99.90;;;;;;5029243;28;20049;-57
2022/03/19 06:43:38;;;;;;;16.35;7.13;;;3.90;99.90;;;;;;5038112;28;20260;-57
2022/03/19 06:46:05;;;;;;;18.65;7.53;;;3.90;99.90;;;;;;5039661;28;20056;-57
2022/03/19 06:48:31;;;;;;;19.52;7.32;;;4.00;99.90;;;;;;5052543;28;20436;-57
2022/03/19 06:50:58;;;;;;;19.42;7.28;;;4.00;99.90;;;;;;5030999;28;20089;-58
2022/03/19 06:53:25;;;;;;;24.15;7.22;;;4.10;99.90;;;;;;5040041;28;20949;-57
2022/03/19 06:55:51;;;;;;;15.77;7.15;;;4.20;99.90;;;;;;5039768;28;20052;-57
2022/03/19 06:58:19;;;;;;;21.00;7.15;;;4.20;99.90;;;;;;5039948;28;20535;-57
2022/03/19 07:00:46;;;;;;;18.17;7.75;;;4.30;99.90;;;;;;5042952;28;20625;-58
2022/03/19 07:03:12;;;;;;;15.77;6.85;;;4.40;99.90;;;;;;5043014;28;20032;-59
2022/03/19 07:05:39;;;;;;;24.58;11.25;;;4.70;99.90;;;;;;5036906;28;20061;-58
2022/03/19 07:08:08;;;;;;;16.58;8.43;;;4.90;99.90;;;;;;5043397;28;20447;-57
2022/03/19 07:10:35;;;;;;;16.33;7.00;;;5.20;99.90;;;;;;5039351;28;20045;-58
2022/03/19 07:13:01;;;;;;;16.25;6.68;;;5.40;99.90;;;;;;5054898;28;20056;-57
2022/03/19 07:15:30;;;;;;;16.27;8.32;;;5.80;99.90;;;;;;5039995;28;20505;-58
2022/03/19 07:17:57;;;;;;;16.73;6.47;;;6.10;99.90;;;;;;5042182;28;20577;-58
2022/03/19 07:20:23;;;;;;;17.98;6.68;;;6.50;99.90;;;;;;5043600;28;20076;-58
2022/03/19 07:23:07;;;;;;;18.90;7.10;;;6.80;99.90;;;;;;5023785;28;20041;-58
2022/03/19 07:25:38;;;;;;;17.85;6.28;;;7.00;99.90;;;;;;5042029;28;20048;-58
2022/03/19 07:28:08;;;;;;;18.85;6.53;;;7.30;99.90;;;;;;5039849;28;20044;-57
2022/03/19 07:30:34;;;;;;;19.02;6.47;;;7.60;99.90;;;;;;5028181;28;20045;-58
2022/03/19 07:33:01;;;;;;;14.15;6.03;;;7.90;99.90;;;;;;5052680;28;20048;-58
2022/03/19 07:35:27;;;;;;;28.35;16.75;;;8.20;99.90;;;;;;5057535;28;20083;-58
2022/03/19 07:37:57;;;;;;;17.45;9.45;;;8.40;99.90;;;;;;5043616;28;20403;-58
2022/03/19 07:43:11;;;;;;;17.75;7.35;;;9.30;99.90;;;;;;5055107;28;20045;-57
2022/03/19 07:45:39;;;;;;;18.40;8.30;;;9.60;99.90;;;;;;5044124;28;20132;-57
2022/03/19 07:48:05;;;;;;;31.38;20.83;;;10.00;99.90;;;;;;5043308;28;20492;-56
2022/03/19 07:50:32;;;;;;;16.80;9.27;;;10.00;99.90;;;;;;5033861;28;20049;-58
2022/03/19 07:52:58;;;;;;;18.95;10.88;;;10.20;99.90;;;;;;5054503;28;20118;-57
2022/03/19 07:55:25;;;;;;;18.83;8.75;;;10.60;99.90;;;;;;5041767;28;20059;-59
2022/03/19 07:57:52;;;;;;;30.25;19.42;;;10.90;99.90;;;;;;5020589;28;20395;-59
2022/03/19 08:00:18;;;;;;;21.92;10.50;;;11.30;99.90;;;;;;5039291;28;20045;-60
2022/03/19 08:02:45;;;;;;;15.50;8.50;;;11.60;99.90;;;;;;5041598;28;20041;-61
2022/03/19 08:05:12;;;;;;;25.52;14.65;;;11.60;99.90;;;;;;5041410;28;20110;-61
2022/03/19 08:07:38;;;;;;;18.00;9.68;;;11.80;99.90;;;;;;5016651;28;20053;-61
2022/03/19 08:10:08;;;;;;;15.95;5.45;;;12.00;99.90;;;;;;5069492;28;20082;-61
2022/03/19 08:12:36;;;;;;;15.80;6.97;;;12.00;99.90;;;;;;5046980;28;20401;-60
2022/03/19 08:15:04;;;;;;;18.40;10.13;;;12.30;99.90;;;;;;5037731;28;20412;-60
2022/03/19 08:17:30;;;;;;;14.45;7.40;;;12.10;99.90;;;;;;5040440;28;20152;-60
2022/03/19 08:20:00;;;;;;;13.73;4.63;;;12.10;99.90;;;;;;5047042;28;20057;-60
2022/03/19 08:22:26;;;;;;;13.40;5.15;;;12.50;99.90;;;;;;5054973;28;20098;-60
2022/03/19 08:24:53;;;;;;;16.50;7.70;;;12.40;99.90;;;;;;5044038;28;20156;-60
2022/03/19 08:27:22;;;;;;;12.82;5.10;;;13.00;99.90;;;;;;5051985;28;20053;-61
2022/03/19 08:29:48;;;;;;;16.27;6.40;;;13.40;99.90;;;;;;5040151;28;20060;-60
2022/03/19 08:32:14;;;;;;;39.53;26.98;;;13.80;87.50;;;;;;5049356;28;20627;-60
2022/03/19 08:34:41;;;;;;;30.95;20.88;;;14.20;69.70;;;;;;5041064;28;20131;-58
2022/03/19 08:37:07;;;;;;;15.10;6.57;;;14.30;70.70;;;;;;5035702;28;20481;-61
2022/03/19 08:42:18;;;;;;;28.13;14.80;;;14.30;62.20;;;;;;5037970;28;20540;-61
2022/03/19 08:44:44;;;;;;;11.00;4.28;;;14.20;59.10;;;;;;5033615;28;20049;-61
2022/03/19 08:47:10;;;;;;;17.42;10.25;;;14.10;57.30;;;;;;5037817;28;20131;-61
2022/03/19 08:49:36;;;;;;;15.40;7.63;;;14.50;59.20;;;;;;5056394;28;20052;-61
2022/03/19 08:52:02;;;;;;;13.65;5.15;;;14.70;58.20;;;;;;5024597;28;20527;-59
2022/03/19 08:54:28;;;;;;;21.27;12.60;;;14.80;57.10;;;;;;5034915;28;20053;-56
2022/03/19 08:56:54;;;;;;;14.98;5.60;;;15.10;56.50;;;;;;5040360;28;20049;-57
2022/03/19 08:59:20;;;;;;;12.95;4.45;;;15.30;57.10;;;;;;5035522;28;21275;-57
2022/03/19 09:01:49;;;;;;;10.43;3.88;;;15.60;55.70;;;;;;5045133;28;20542;-57
2022/03/19 09:04:16;;;;;;;12.40;4.53;;;15.40;54.40;;;;;;5044859;28;20119;-60
2022/03/19 09:06:42;;;;;;;15.18;6.32;;;15.20;52.30;;;;;;5045713;28;20129;-56
2022/03/19 09:09:11;;;;;;;12.73;5.95;;;15.50;52.50;;;;;;5045534;28;20479;-58
2022/03/19 09:11:37;;;;;;;14.10;5.03;;;15.50;52.70;;;;;;5023955;28;20045;-58
2022/03/19 09:14:06;;;;;;;26.52;12.77;;;15.40;52.60;;;;;;5027931;28;20048;-58
2022/03/19 09:16:32;;;;;;;14.82;6.00;;;15.70;52.60;;;;;;5039595;28;20049;-56
2022/03/19 09:18:59;;;;;;;10.30;3.90;;;15.90;50.10;;;;;;5041346;28;20131;-56
2022/03/19 09:21:25;;;;;;;12.27;3.88;;;15.50;50.30;;;;;;5044070;28;20500;-57
2022/03/19 09:23:51;;;;;;;11.95;3.28;;;15.10;49.90;;;;;;5043212;28;20546;-57
2022/03/19 09:26:18;;;;;;;12.93;3.47;;;15.30;50.90;;;;;;5038108;28;20116;-57
2022/03/19 09:28:47;;;;;;;12.25;4.63;;;15.30;50.20;;;;;;5038045;28;20045;-57
2022/03/19 09:31:16;;;;;;;12.43;3.70;;;15.30;50.30;;;;;;5061562;28;20052;-58
2022/03/19 09:33:43;;;;;;;11.75;3.88;;;15.10;49.90;;;;;;5043290;28;20049;-57
2022/03/19 09:36:10;;;;;;;14.23;3.47;;;15.80;49.90;;;;;;5044159;28;20462;-57
2022/03/19 09:38:36;;;;;;;10.85;3.10;;;16.60;48.80;;;;;;5040228;28;20049;-56
2022/03/19 09:41:03;;;;;;;10.25;3.00;;;16.30;47.00;;;;;;5009636;28;20064;-57
2022/03/19 09:43:29;;;;;;;10.95;3.20;;;16.70;46.80;;;;;;5044703;28;20099;-57
2022/03/19 09:45:55;;;;;;;10.73;3.58;;;16.20;45.80;;;;;;5044752;28;20048;-58
2022/03/19 09:48:22;;;;;;;9.57;3.03;;;16.10;46.20;;;;;;5043522;28;20206;-57
2022/03/19 09:50:50;;;;;;;14.05;7.05;;;16.50;45.40;;;;;;5040961;28;20049;-58
2022/03/19 09:53:19;;;;;;;38.53;32.92;;;16.80;45.40;;;;;;5056471;28;20616;-58
2022/03/19 09:55:46;;;;;;;19.58;13.15;;;16.40;45.80;;;;;;5043618;28;20045;-58
2022/03/19 09:58:15;;;;;;;12.10;4.20;;;16.80;45.60;;;;;;5040409;28;20053;-58
2022/03/19 10:00:42;;;;;;;26.98;12.45;;;16.80;45.20;;;;;;5055130;28;20875;-58
2022/03/19 10:03:11;;;;;;;13.25;4.93;;;16.90;45.80;;;;;;5056604;28;20049;-60
2022/03/19 10:08:36;;;;;;;17.25;6.45;;;17.40;44.50;;;;;;5050388;28;20056;-58
2022/03/19 10:11:11;;;;;;;11.50;3.78;;;17.40;45.10;;;;;;5041645;28;20071;-58
2022/03/19 10:13:38;;;;;;;9.98;3.45;;;17.10;44.00;;;;;;5041460;28;20459;-59
2022/03/19 10:16:05;;;;;;;10.00;3.47;;;17.30;44.40;;;;;;5063444;28;20036;-58
2022/03/19 10:18:32;;;;;;;16.80;5.03;;;17.30;41.70;;;;;;5061166;28;20491;-59
2022/03/19 10:21:12;;;;;;;11.00;3.13;;;17.30;43.10;;;;;;5043733;28;20051;-58
2022/03/19 10:23:39;;;;;;;11.10;3.88;;;17.70;42.10;;;;;;5056465;28;20151;-58
2022/03/19 10:26:06;;;;;;;14.55;3.75;;;17.60;41.40;;;;;;5058579;28;20063;-58
2022/03/19 10:28:35;;;;;;;12.38;3.63;;;17.50;42.80;;;;;;5062803;28;20487;-58
2022/03/19 10:31:03;;;;;;;18.98;4.72;;;17.90;44.00;;;;;;5056770;28;20053;-58
2022/03/19 10:33:33;;;;;;;120.38;32.67;;;17.90;44.00;;;;;;5049414;28;20055;-58
2022/03/19 10:36:13;;;;;;;39.88;12.20;;;18.00;46.10;;;;;;5055335;28;20048;-58
2022/03/19 10:38:44;;;;;;;79.72;70.85;;;18.10;46.30;;;;;;5056711;28;20404;-60
2022/03/19 10:41:12;;;;;;;;;;;17.80;42.10;;;;;;5049148;28;20136;-58
2022/03/19 10:43:38;;;;;;;29.73;10.77;;;17.80;43.90;;;;;;5052541;28;19949;-61
2022/03/19 10:46:04;;;;;;;15.85;8.13;;;18.60;44.70;;;;;;5059439;28;20051;-61
2022/03/19 10:48:31;;;;;;;15.60;8.20;;;19.00;42.50;;;;;;5059858;28;20119;-61
2022/03/19 10:50:58;;;;;;;19.30;9.02;;;18.70;43.30;;;;;;5037442;28;20049;-59
2022/03/19 10:53:25;;;;;;;14.45;4.80;;;18.80;43.30;;;;;;5053392;28;20504;-59
2022/03/19 10:55:52;;;;;;;14.07;4.00;;;18.70;40.30;;;;;;5053501;28;20151;-59
2022/03/19 10:58:19;;;;;;;6.50;2.10;;;18.80;38.00;;;;;;5063389;28;20774;-61
2022/03/19 11:00:50;;;;;;;7.80;2.20;;;18.20;38.10;;;;;;5061809;28;20057;-61
2022/03/19 11:03:28;;;;;;;27.00;20.58;;;17.90;38.40;;;;;;5041851;28;20467;-61
2022/03/19 11:06:08;;;;;;;13.80;7.13;;;18.00;40.60;;;;;;5039040;28;20044;-61
2022/03/19 11:08:38;;;;;;;8.15;3.92;;;18.30;39.00;;;;;;5044507;28;20645;-60
2022/03/19 11:11:16;;;;;;;10.68;5.03;;;18.80;42.20;;;;;;5055238;28;20072;-61
2022/03/19 11:13:46;;;;;;;8.32;4.05;;;19.10;40.30;;;;;;5059429;28;20100;-62
2022/03/19 11:16:12;;;;;;;7.38;2.35;;;19.60;41.50;;;;;;5034685;28;20049;-61
2022/03/19 11:18:42;;;;;;;6.15;2.60;;;19.70;38.60;;;;;;5043424;28;20071;-61
2022/03/19 11:21:09;;;;;;;4.65;1.83;;;19.50;37.30;;;;;;5032833;28;20049;-59
2022/03/19 11:23:47;;;;;;;6.90;1.90;;;19.60;36.70;;;;;;5049770;28;20075;-59
2022/03/19 11:26:19;;;;;;;6.70;2.20;;;19.80;36.90;;;;;;5035927;28;20041;-59
2022/03/19 11:28:45;;;;;;;;;;;20.20;37.30;;;;;;5042788;28;20120;-60
2022/03/19 11:31:14;;;;;;;6.65;2.25;;;20.30;33.60;;;;;;5031421;28;19920;-59
2022/03/19 11:33:40;;;;;;;9.23;3.13;;;20.40;36.40;;;;;;5050739;28;20128;-59
2022/03/19 11:36:10;;;;;;;8.07;2.58;;;20.20;37.60;;;;;;5047010;28;20345;-61
2022/03/19 11:38:53;;;;;;;9.38;3.17;;;20.10;37.50;;;;;;5057296;28;20638;-59
2022/03/19 11:41:25;;;;;;;7.10;2.58;;;19.90;37.00;;;;;;5046777;28;20048;-60
2022/03/19 11:44:24;;;;;;;7.18;2.00;;;20.50;38.60;;;;;;5035523;28;20048;-58
2022/03/19 11:46:57;;;;;;;15.20;10.82;;;20.30;37.30;;;;;;5050665;28;20032;-59
2022/03/19 11:50:02;;;;;;;24.50;19.23;;;20.50;37.90;;;;;;5050214;28;20079;-60
2022/03/19 11:52:31;;;;;;;5.65;2.72;;;20.40;37.20;;;;;;5023021;28;20052;-60
2022/03/19 11:55:03;;;;;;;7.93;4.00;;;19.40;36.10;;;;;;5040960;28;20135;-60
2022/03/19 11:57:50;;;;;;;5.43;1.77;;;20.00;36.60;;;;;;5055900;28;20102;-61
2022/03/19 12:00:18;;;;;;;7.20;2.42;;;19.40;34.60;;;;;;5020883;28;20455;-61
2022/03/19 12:03:06;;;;;;;5.63;2.45;;;19.30;35.10;;;;;;5042924;28;20562;-61
2022/03/19 12:05:53;;;;;;;5.60;2.22;;;18.90;35.50;;;;;;5054639;28;20045;-60
2022/03/19 12:08:21;;;;;;;12.10;2.67;;;19.70;34.90;;;;;;5040238;28;20295;-61
2022/03/19 12:10:57;;;;;;;7.40;2.83;;;19.90;35.30;;;;;;5040308;28;20048;-61
2022/03/19 12:13:29;;;;;;;6.80;1.90;;;20.20;35.20;;;;;;5041042;28;20057;-61
2022/03/19 12:15:59;;;;;;;6.90;2.80;;;20.00;34.70;;;;;;5055376;28;20052;-61
2022/03/19 12:18:33;;;;;;;6.75;2.33;;;20.20;33.80;;;;;;5037091;28;20076;-60
2022/03/19 12:21:00;;;;;;;6.55;2.13;;;20.40;34.70;;;;;;5038354;28;20063;-60
2022/03/19 12:23:27;;;;;;;7.32;2.97;;;20.40;34.80;;;;;;5040316;28;20049;-63
2022/03/19 12:26:00;;;;;;;5.57;2.30;;;20.80;34.50;;;;;;5040960;28;20042;-60
2022/03/19 12:28:26;;;;;;;6.35;2.47;;;20.40;33.30;;;;;;5021123;28;20067;-61
2022/03/19 12:30:52;;;;;;;4.63;1.20;;;20.90;33.40;;;;;;5060890;28;20053;-62
2022/03/19 12:33:18;;;;;;;7.25;2.40;;;20.60;32.20;;;;;;5060798;28;20044;-60
2022/03/19 12:35:46;;;;;;;6.15;2.13;;;20.50;33.40;;;;;;5055315;28;20763;-61
2022/03/19 12:38:26;;;;;;;5.95;2.55;;;20.20;33.40;;;;;;5060041;28;20094;-61
2022/03/19 12:43:38;;;;;;;10.93;4.68;;;20.30;32.90;;;;;;5049263;28;20070;-58
2022/03/19 12:46:05;;;;;;;5.28;2.92;;;20.60;34.40;;;;;;5057753;28;20044;-59
2022/03/19 12:48:32;;;;;;;5.90;2.70;;;20.60;34.60;;;;;;5060814;28;20051;-62
2022/03/19 12:50:59;;;;;;;6.18;2.65;;;20.80;34.40;;;;;;5051267;28;20057;-62
2022/03/19 12:53:36;;;;;;;6.13;3.25;;;20.90;34.40;;;;;;5060244;28;20055;-61
2022/03/19 12:56:16;;;;;;;8.45;3.40;;;21.00;34.70;;;;;;5058072;28;20052;-59
2022/03/19 12:58:48;;;;;;;6.32;2.13;;;20.80;34.80;;;;;;5049741;28;20411;-61
2022/03/19 13:01:16;;;;;;;5.45;2.10;;;20.90;33.80;;;;;;5059608;28;20461;-61
2022/03/19 13:03:42;;;;;;;7.90;1.98;;;20.50;31.10;;;;;;5033415;28;20044;-61
2022/03/19 13:06:09;;;;;;;4.93;2.17;;;20.90;31.40;;;;;;5039265;28;20046;-61
2022/03/19 13:08:49;;;;;;;7.03;1.83;;;21.20;32.60;;;;;;5051371;28;20044;-61